sensor_id;sensor_type;location;lat;lon;timestamp;P1;durP1;ratioP1;P2;durP2;ratioP2
43706;SDS011;61348;53.392;-6.248;2023-09-18T00:01:11;29.58;;;19.73;;
43706;SDS011;61348;53.392;-6.248;2023-09-18T00:03:38;29.80;;;19.48;;
43706;SDS011;61348;53.392;-6.248;2023-09-18T00:06:06;24.83;;;16.13;;
43706;SDS011;61348;53.392;-6.248;2023-09-18T00:08:35;22.48;;;15.68;;
43706;SDS011;61348;53.392;-6.248;2023-09-18T00:11:02;24.13;;;16.23;;
43706;SDS011;61348;53.392;-6.248;2023-09-18T00:13:30;24.52;;;15.68;;
43706;SDS011;61348;53.392;-6.248;2023-09-18T00:15:57;23.30;;;16.33;;
43706;SDS011;61348;53.392;-6.248;2023-09-18T00:18:26;22.67;;;15.30;;
43706;SDS011;61348;53.392;-6.248;2023-09-18T00:20:53;23.45;;;15.13;;
43706;SDS011;61348;53.392;-6.248;2023-09-18T00:23:21;19.67;;;14.40;;
43706;SDS011;61348;53.392;-6.248;2023-09-18T00:25:48;20.70;;;14.82;;
43706;SDS011;61348;53.392;-6.248;2023-09-18T00:28:15;20.77;;;14.18;;
43706;SDS011;61348;53.392;-6.248;2023-09-18T00:30:46;19.77;;;13.85;;
43706;SDS011;61348;53.392;-6.248;2023-09-18T00:33:16;19.95;;;13.63;;
43706;SDS011;61348;53.392;-6.248;2023-09-18T00:35:47;20.15;;;14.75;;
43706;SDS011;61348;53.392;-6.248;2023-09-18T00:38:15;21.42;;;13.82;;
43706;SDS011;61348;53.392;-6.248;2023-09-18T00:40:43;19.65;;;12.98;;
43706;SDS011;61348;53.392;-6.248;2023-09-18T00:43:10;20.13;;;13.95;;
43706;SDS011;61348;53.392;-6.248;2023-09-18T00:45:39;17.55;;;12.45;;
43706;SDS011;61348;53.392;-6.248;2023-09-18T00:48:09;15.85;;;11.95;;
43706;SDS011;61348;53.392;-6.248;2023-09-18T00:50:36;16.80;;;11.80;;
43706;SDS011;61348;53.392;-6.248;2023-09-18T00:53:05;18.48;;;12.43;;
43706;SDS011;61348;53.392;-6.248;2023-09-18T00:55:34;22.23;;;13.35;;
43706;SDS011;61348;53.392;-6.248;2023-09-18T00:58:06;21.10;;;13.30;;
43706;SDS011;61348;53.392;-6.248;2023-09-18T01:00:34;17.45;;;12.05;;
43706;SDS011;61348;53.392;-6.248;2023-09-18T01:03:01;19.08;;;13.43;;
43706;SDS011;61348;53.392;-6.248;2023-09-18T01:05:32;18.75;;;12.40;;
43706;SDS011;61348;53.392;-6.248;2023-09-18T01:08:00;16.08;;;12.45;;
43706;SDS011;61348;53.392;-6.248;2023-09-18T01:10:29;17.48;;;13.23;;
43706;SDS011;61348;53.392;-6.248;2023-09-18T01:13:13;18.38;;;12.32;;
43706;SDS011;61348;53.392;-6.248;2023-09-18T01:15:54;19.58;;;12.60;;
43706;SDS011;61348;53.392;-6.248;2023-09-18T01:18:24;19.25;;;13.57;;
43706;SDS011;61348;53.392;-6.248;2023-09-18T01:20:52;21.80;;;13.80;;
43706;SDS011;61348;53.392;-6.248;2023-09-18T01:23:19;20.90;;;14.73;;
43706;SDS011;61348;53.392;-6.248;2023-09-18T01:25:46;22.42;;;15.20;;
43706;SDS011;61348;53.392;-6.248;2023-09-18T01:28:13;22.33;;;13.95;;
43706;SDS011;61348;53.392;-6.248;2023-09-18T01:30:43;22.27;;;15.35;;
43706;SDS011;61348;53.392;-6.248;2023-09-18T01:33:11;21.65;;;15.23;;
43706;SDS011;61348;53.392;-6.248;2023-09-18T01:35:39;22.67;;;15.55;;
43706;SDS011;61348;53.392;-6.248;2023-09-18T01:38:07;22.42;;;15.48;;
43706;SDS011;61348;53.392;-6.248;2023-09-18T01:40:37;24.88;;;16.08;;
43706;SDS011;61348;53.392;-6.248;2023-09-18T01:43:06;28.45;;;16.63;;
43706;SDS011;61348;53.392;-6.248;2023-09-18T01:45:33;24.65;;;15.00;;
43706;SDS011;61348;53.392;-6.248;2023-09-18T01:48:03;26.20;;;16.33;;
43706;SDS011;61348;53.392;-6.248;2023-09-18T01:50:32;27.02;;;16.38;;
43706;SDS011;61348;53.392;-6.248;2023-09-18T01:53:00;27.25;;;17.48;;
43706;SDS011;61348;53.392;-6.248;2023-09-18T01:55:27;28.42;;;17.05;;
43706;SDS011;61348;53.392;-6.248;2023-09-18T01:57:55;31.45;;;17.55;;
43706;SDS011;61348;53.392;-6.248;2023-09-18T02:00:23;32.65;;;19.42;;
43706;SDS011;61348;53.392;-6.248;2023-09-18T02:02:50;38.38;;;20.33;;
43706;SDS011;61348;53.392;-6.248;2023-09-18T02:05:23;37.90;;;19.95;;
43706;SDS011;61348;53.392;-6.248;2023-09-18T02:07:51;35.10;;;19.65;;
43706;SDS011;61348;53.392;-6.248;2023-09-18T02:10:19;40.55;;;20.98;;
43706;SDS011;61348;53.392;-6.248;2023-09-18T02:12:46;38.83;;;20.95;;
43706;SDS011;61348;53.392;-6.248;2023-09-18T02:15:14;35.85;;;19.52;;
43706;SDS011;61348;53.392;-6.248;2023-09-18T02:17:43;42.95;;;21.73;;
43706;SDS011;61348;53.392;-6.248;2023-09-18T02:20:11;40.50;;;21.85;;
43706;SDS011;61348;53.392;-6.248;2023-09-18T02:22:38;40.63;;;21.02;;
43706;SDS011;61348;53.392;-6.248;2023-09-18T02:25:08;39.55;;;21.65;;
43706;SDS011;61348;53.392;-6.248;2023-09-18T02:27:35;44.63;;;23.10;;
43706;SDS011;61348;53.392;-6.248;2023-09-18T02:30:03;35.38;;;21.17;;
43706;SDS011;61348;53.392;-6.248;2023-09-18T02:32:30;33.53;;;19.92;;
43706;SDS011;61348;53.392;-6.248;2023-09-18T02:34:58;38.08;;;20.55;;
43706;SDS011;61348;53.392;-6.248;2023-09-18T02:37:25;39.42;;;21.48;;
43706;SDS011;61348;53.392;-6.248;2023-09-18T02:39:52;37.03;;;20.52;;
43706;SDS011;61348;53.392;-6.248;2023-09-18T02:42:20;35.40;;;19.20;;
43706;SDS011;61348;53.392;-6.248;2023-09-18T02:44:47;34.42;;;18.23;;
43706;SDS011;61348;53.392;-6.248;2023-09-18T02:47:14;36.55;;;19.75;;
43706;SDS011;61348;53.392;-6.248;2023-09-18T02:49:42;31.70;;;17.33;;
43706;SDS011;61348;53.392;-6.248;2023-09-18T02:52:09;34.50;;;18.98;;
43706;SDS011;61348;53.392;-6.248;2023-09-18T02:54:36;31.20;;;17.92;;
43706;SDS011;61348;53.392;-6.248;2023-09-18T02:57:03;30.02;;;16.98;;
43706;SDS011;61348;53.392;-6.248;2023-09-18T02:59:31;30.30;;;18.27;;
43706;SDS011;61348;53.392;-6.248;2023-09-18T03:01:59;27.98;;;16.20;;
43706;SDS011;61348;53.392;-6.248;2023-09-18T03:04:26;29.20;;;16.67;;
43706;SDS011;61348;53.392;-6.248;2023-09-18T03:06:53;25.20;;;15.30;;
43706;SDS011;61348;53.392;-6.248;2023-09-18T03:09:21;21.13;;;14.02;;
43706;SDS011;61348;53.392;-6.248;2023-09-18T03:11:48;20.85;;;12.35;;
43706;SDS011;61348;53.392;-6.248;2023-09-18T03:14:15;15.88;;;9.80;;
43706;SDS011;61348;53.392;-6.248;2023-09-18T03:16:44;13.32;;;8.43;;
43706;SDS011;61348;53.392;-6.248;2023-09-18T03:19:11;11.82;;;7.90;;
43706;SDS011;61348;53.392;-6.248;2023-09-18T03:21:39;7.90;;;5.97;;
43706;SDS011;61348;53.392;-6.248;2023-09-18T03:24:07;7.90;;;5.13;;
43706;SDS011;61348;53.392;-6.248;2023-09-18T03:26:34;6.53;;;4.30;;
43706;SDS011;61348;53.392;-6.248;2023-09-18T03:29:01;6.00;;;4.03;;
43706;SDS011;61348;53.392;-6.248;2023-09-18T03:31:28;7.45;;;4.65;;
43706;SDS011;61348;53.392;-6.248;2023-09-18T03:33:56;6.70;;;3.08;;
43706;SDS011;61348;53.392;-6.248;2023-09-18T03:36:23;6.43;;;3.45;;
43706;SDS011;61348;53.392;-6.248;2023-09-18T03:38:51;4.65;;;2.90;;
43706;SDS011;61348;53.392;-6.248;2023-09-18T03:41:18;3.85;;;2.92;;
43706;SDS011;61348;53.392;-6.248;2023-09-18T03:43:45;3.60;;;2.95;;
43706;SDS011;61348;53.392;-6.248;2023-09-18T03:46:14;4.80;;;3.33;;
43706;SDS011;61348;53.392;-6.248;2023-09-18T03:48:41;3.40;;;2.55;;
43706;SDS011;61348;53.392;-6.248;2023-09-18T03:51:09;3.42;;;2.83;;
43706;SDS011;61348;53.392;-6.248;2023-09-18T03:53:36;5.07;;;3.20;;
43706;SDS011;61348;53.392;-6.248;2023-09-18T03:56:04;5.75;;;2.90;;
43706;SDS011;61348;53.392;-6.248;2023-09-18T03:58:32;9.80;;;2.83;;
43706;SDS011;61348;53.392;-6.248;2023-09-18T04:01:02;5.10;;;3.55;;
43706;SDS011;61348;53.392;-6.248;2023-09-18T04:03:29;5.22;;;3.20;;
43706;SDS011;61348;53.392;-6.248;2023-09-18T04:05:56;4.30;;;2.97;;
43706;SDS011;61348;53.392;-6.248;2023-09-18T04:08:23;5.65;;;3.38;;
43706;SDS011;61348;53.392;-6.248;2023-09-18T04:10:51;5.28;;;3.28;;
43706;SDS011;61348;53.392;-6.248;2023-09-18T04:13:18;6.95;;;3.10;;
43706;SDS011;61348;53.392;-6.248;2023-09-18T04:15:45;3.60;;;3.05;;
43706;SDS011;61348;53.392;-6.248;2023-09-18T04:18:12;3.67;;;2.78;;
43706;SDS011;61348;53.392;-6.248;2023-09-18T04:20:40;6.13;;;3.33;;
43706;SDS011;61348;53.392;-6.248;2023-09-18T04:23:17;3.78;;;2.50;;
43706;SDS011;61348;53.392;-6.248;2023-09-18T04:25:49;3.67;;;2.45;;
43706;SDS011;61348;53.392;-6.248;2023-09-18T04:28:17;6.53;;;3.45;;
43706;SDS011;61348;53.392;-6.248;2023-09-18T04:30:46;5.90;;;2.40;;
43706;SDS011;61348;53.392;-6.248;2023-09-18T04:33:14;5.32;;;2.40;;
43706;SDS011;61348;53.392;-6.248;2023-09-18T04:35:42;4.57;;;2.17;;
43706;SDS011;61348;53.392;-6.248;2023-09-18T04:38:10;3.90;;;2.28;;
43706;SDS011;61348;53.392;-6.248;2023-09-18T04:40:37;2.92;;;2.17;;
43706;SDS011;61348;53.392;-6.248;2023-09-18T04:43:07;4.40;;;2.10;;
43706;SDS011;61348;53.392;-6.248;2023-09-18T04:45:35;7.35;;;2.28;;
43706;SDS011;61348;53.392;-6.248;2023-09-18T04:48:04;2.60;;;1.98;;
43706;SDS011;61348;53.392;-6.248;2023-09-18T04:50:32;3.38;;;2.13;;
43706;SDS011;61348;53.392;-6.248;2023-09-18T04:53:00;3.97;;;2.55;;
43706;SDS011;61348;53.392;-6.248;2023-09-18T04:55:28;3.83;;;2.00;;
43706;SDS011;61348;53.392;-6.248;2023-09-18T04:57:56;4.10;;;2.00;;
43706;SDS011;61348;53.392;-6.248;2023-09-18T05:00:25;2.58;;;2.15;;
43706;SDS011;61348;53.392;-6.248;2023-09-18T05:02:53;7.28;;;1.95;;
43706;SDS011;61348;53.392;-6.248;2023-09-18T05:05:21;3.20;;;2.00;;
43706;SDS011;61348;53.392;-6.248;2023-09-18T05:07:48;3.17;;;2.60;;
43706;SDS011;61348;53.392;-6.248;2023-09-18T05:10:15;8.85;;;2.83;;
43706;SDS011;61348;53.392;-6.248;2023-09-18T05:12:43;3.22;;;2.22;;
43706;SDS011;61348;53.392;-6.248;2023-09-18T05:15:11;2.85;;;2.08;;
43706;SDS011;61348;53.392;-6.248;2023-09-18T05:17:43;4.80;;;2.35;;
43706;SDS011;61348;53.392;-6.248;2023-09-18T05:20:15;6.05;;;2.50;;
43706;SDS011;61348;53.392;-6.248;2023-09-18T05:22:44;6.18;;;2.65;;
43706;SDS011;61348;53.392;-6.248;2023-09-18T05:25:12;6.65;;;2.85;;
43706;SDS011;61348;53.392;-6.248;2023-09-18T05:27:42;4.88;;;2.88;;
43706;SDS011;61348;53.392;-6.248;2023-09-18T05:30:15;3.63;;;2.92;;
43706;SDS011;61348;53.392;-6.248;2023-09-18T05:32:47;6.32;;;3.40;;
43706;SDS011;61348;53.392;-6.248;2023-09-18T05:35:15;4.85;;;2.78;;
43706;SDS011;61348;53.392;-6.248;2023-09-18T05:37:43;5.55;;;3.00;;
43706;SDS011;61348;53.392;-6.248;2023-09-18T05:40:11;3.92;;;3.25;;
43706;SDS011;61348;53.392;-6.248;2023-09-18T05:42:40;7.43;;;3.00;;
43706;SDS011;61348;53.392;-6.248;2023-09-18T05:45:11;7.50;;;2.83;;
43706;SDS011;61348;53.392;-6.248;2023-09-18T05:47:40;7.55;;;3.03;;
43706;SDS011;61348;53.392;-6.248;2023-09-18T05:50:10;8.10;;;2.90;;
43706;SDS011;61348;53.392;-6.248;2023-09-18T05:52:43;6.40;;;2.60;;
43706;SDS011;61348;53.392;-6.248;2023-09-18T05:55:12;3.45;;;2.60;;
43706;SDS011;61348;53.392;-6.248;2023-09-18T05:57:40;2.55;;;2.03;;
43706;SDS011;61348;53.392;-6.248;2023-09-18T06:00:08;7.80;;;2.17;;
43706;SDS011;61348;53.392;-6.248;2023-09-18T06:02:40;3.72;;;1.92;;
43706;SDS011;61348;53.392;-6.248;2023-09-18T06:05:07;2.65;;;1.90;;
43706;SDS011;61348;53.392;-6.248;2023-09-18T06:07:38;6.43;;;1.83;;
43706;SDS011;61348;53.392;-6.248;2023-09-18T06:10:06;5.53;;;1.77;;
43706;SDS011;61348;53.392;-6.248;2023-09-18T06:12:33;4.43;;;1.98;;
43706;SDS011;61348;53.392;-6.248;2023-09-18T06:15:00;2.22;;;1.63;;
43706;SDS011;61348;53.392;-6.248;2023-09-18T06:17:27;6.82;;;1.67;;
43706;SDS011;61348;53.392;-6.248;2023-09-18T06:19:55;3.10;;;1.83;;
43706;SDS011;61348;53.392;-6.248;2023-09-18T06:22:22;7.60;;;1.75;;
43706;SDS011;61348;53.392;-6.248;2023-09-18T06:24:50;3.50;;;1.27;;
43706;SDS011;61348;53.392;-6.248;2023-09-18T06:27:17;3.53;;;1.25;;
43706;SDS011;61348;53.392;-6.248;2023-09-18T06:29:45;2.92;;;1.50;;
43706;SDS011;61348;53.392;-6.248;2023-09-18T06:32:12;4.93;;;1.33;;
43706;SDS011;61348;53.392;-6.248;2023-09-18T06:34:40;5.15;;;1.35;;
43706;SDS011;61348;53.392;-6.248;2023-09-18T06:37:10;2.30;;;1.40;;
43706;SDS011;61348;53.392;-6.248;2023-09-18T06:39:39;4.15;;;1.25;;
43706;SDS011;61348;53.392;-6.248;2023-09-18T06:42:06;6.72;;;1.67;;
43706;SDS011;61348;53.392;-6.248;2023-09-18T06:44:33;2.83;;;1.45;;
43706;SDS011;61348;53.392;-6.248;2023-09-18T06:47:01;2.03;;;1.20;;
43706;SDS011;61348;53.392;-6.248;2023-09-18T06:49:28;9.52;;;2.92;;
43706;SDS011;61348;53.392;-6.248;2023-09-18T06:51:55;8.18;;;2.15;;
43706;SDS011;61348;53.392;-6.248;2023-09-18T06:54:22;4.82;;;1.23;;
43706;SDS011;61348;53.392;-6.248;2023-09-18T06:56:50;1.30;;;1.20;;
43706;SDS011;61348;53.392;-6.248;2023-09-18T06:59:17;4.07;;;0.90;;
43706;SDS011;61348;53.392;-6.248;2023-09-18T07:01:44;2.25;;;1.20;;
43706;SDS011;61348;53.392;-6.248;2023-09-18T07:04:11;3.53;;;1.30;;
43706;SDS011;61348;53.392;-6.248;2023-09-18T07:06:38;2.03;;;1.13;;
43706;SDS011;61348;53.392;-6.248;2023-09-18T07:09:07;2.33;;;1.20;;
43706;SDS011;61348;53.392;-6.248;2023-09-18T07:11:34;3.08;;;1.05;;
43706;SDS011;61348;53.392;-6.248;2023-09-18T07:14:02;4.80;;;1.63;;
43706;SDS011;61348;53.392;-6.248;2023-09-18T07:16:33;5.80;;;1.50;;
43706;SDS011;61348;53.392;-6.248;2023-09-18T07:19:01;6.47;;;1.15;;
43706;SDS011;61348;53.392;-6.248;2023-09-18T07:21:31;3.72;;;1.00;;
43706;SDS011;61348;53.392;-6.248;2023-09-18T07:23:58;4.78;;;1.88;;
43706;SDS011;61348;53.392;-6.248;2023-09-18T07:26:26;2.25;;;1.08;;
43706;SDS011;61348;53.392;-6.248;2023-09-18T07:28:53;5.30;;;0.85;;
43706;SDS011;61348;53.392;-6.248;2023-09-18T07:31:21;4.22;;;1.02;;
43706;SDS011;61348;53.392;-6.248;2023-09-18T07:33:48;4.10;;;1.10;;
43706;SDS011;61348;53.392;-6.248;2023-09-18T07:36:17;4.35;;;0.95;;
43706;SDS011;61348;53.392;-6.248;2023-09-18T07:38:45;3.90;;;1.08;;
43706;SDS011;61348;53.392;-6.248;2023-09-18T07:41:12;2.67;;;1.00;;
43706;SDS011;61348;53.392;-6.248;2023-09-18T07:43:42;5.00;;;1.00;;
43706;SDS011;61348;53.392;-6.248;2023-09-18T07:46:09;5.57;;;1.35;;
43706;SDS011;61348;53.392;-6.248;2023-09-18T07:48:36;6.72;;;1.23;;
43706;SDS011;61348;53.392;-6.248;2023-09-18T07:51:04;2.67;;;0.63;;
43706;SDS011;61348;53.392;-6.248;2023-09-18T07:53:32;6.20;;;1.20;;
43706;SDS011;61348;53.392;-6.248;2023-09-18T07:55:59;6.85;;;2.30;;
43706;SDS011;61348;53.392;-6.248;2023-09-18T07:58:32;4.72;;;0.85;;
43706;SDS011;61348;53.392;-6.248;2023-09-18T08:01:00;7.93;;;0.90;;
43706;SDS011;61348;53.392;-6.248;2023-09-18T08:03:27;7.22;;;1.30;;
43706;SDS011;61348;53.392;-6.248;2023-09-18T08:05:55;4.82;;;1.40;;
43706;SDS011;61348;53.392;-6.248;2023-09-18T08:08:23;10.52;;;1.38;;
43706;SDS011;61348;53.392;-6.248;2023-09-18T08:10:51;4.43;;;1.17;;
43706;SDS011;61348;53.392;-6.248;2023-09-18T08:13:19;6.57;;;1.45;;
43706;SDS011;61348;53.392;-6.248;2023-09-18T08:15:47;5.05;;;1.83;;
43706;SDS011;61348;53.392;-6.248;2023-09-18T08:18:14;7.93;;;1.67;;
43706;SDS011;61348;53.392;-6.248;2023-09-18T08:20:42;12.07;;;2.53;;
43706;SDS011;61348;53.392;-6.248;2023-09-18T08:23:12;7.55;;;2.47;;
43706;SDS011;61348;53.392;-6.248;2023-09-18T08:25:39;4.15;;;1.15;;
43706;SDS011;61348;53.392;-6.248;2023-09-18T08:28:08;16.40;;;1.65;;
43706;SDS011;61348;53.392;-6.248;2023-09-18T08:30:35;7.60;;;2.42;;
43706;SDS011;61348;53.392;-6.248;2023-09-18T08:33:04;7.03;;;1.42;;
43706;SDS011;61348;53.392;-6.248;2023-09-18T08:35:32;8.43;;;1.83;;
43706;SDS011;61348;53.392;-6.248;2023-09-18T08:37:59;12.45;;;1.88;;
43706;SDS011;61348;53.392;-6.248;2023-09-18T08:40:27;10.88;;;2.20;;
43706;SDS011;61348;53.392;-6.248;2023-09-18T08:42:54;8.98;;;1.52;;
43706;SDS011;61348;53.392;-6.248;2023-09-18T08:48:31;6.15;;;2.60;;
43706;SDS011;61348;53.392;-6.248;2023-09-18T08:51:02;13.35;;;1.63;;
43706;SDS011;61348;53.392;-6.248;2023-09-18T08:53:31;7.13;;;1.48;;
43706;SDS011;61348;53.392;-6.248;2023-09-18T08:56:00;10.63;;;2.10;;
43706;SDS011;61348;53.392;-6.248;2023-09-18T08:58:32;14.52;;;1.92;;
43706;SDS011;61348;53.392;-6.248;2023-09-18T09:01:04;9.52;;;1.27;;
43706;SDS011;61348;53.392;-6.248;2023-09-18T09:03:34;10.55;;;1.55;;
43706;SDS011;61348;53.392;-6.248;2023-09-18T09:06:01;13.95;;;2.65;;
43706;SDS011;61348;53.392;-6.248;2023-09-18T09:08:28;9.82;;;2.17;;
43706;SDS011;61348;53.392;-6.248;2023-09-18T09:10:56;13.27;;;2.35;;
43706;SDS011;61348;53.392;-6.248;2023-09-18T09:13:26;10.95;;;1.70;;
43706;SDS011;61348;53.392;-6.248;2023-09-18T09:16:07;8.30;;;1.65;;
43706;SDS011;61348;53.392;-6.248;2023-09-18T09:18:47;5.35;;;1.58;;
43706;SDS011;61348;53.392;-6.248;2023-09-18T09:21:17;8.20;;;2.10;;
43706;SDS011;61348;53.392;-6.248;2023-09-18T09:23:46;9.77;;;1.85;;
43706;SDS011;61348;53.392;-6.248;2023-09-18T09:26:23;12.52;;;2.60;;
43706;SDS011;61348;53.392;-6.248;2023-09-18T09:28:50;12.30;;;2.33;;
43706;SDS011;61348;53.392;-6.248;2023-09-18T09:33:56;8.90;;;2.60;;
43706;SDS011;61348;53.392;-6.248;2023-09-18T09:36:24;8.90;;;1.83;;
43706;SDS011;61348;53.392;-6.248;2023-09-18T09:38:55;8.45;;;2.35;;
43706;SDS011;61348;53.392;-6.248;2023-09-18T09:41:26;11.40;;;1.92;;
43706;SDS011;61348;53.392;-6.248;2023-09-18T09:43:55;7.55;;;2.13;;
43706;SDS011;61348;53.392;-6.248;2023-09-18T09:46:23;6.53;;;1.25;;
43706;SDS011;61348;53.392;-6.248;2023-09-18T09:48:59;8.18;;;1.60;;
43706;SDS011;61348;53.392;-6.248;2023-09-18T09:51:28;10.45;;;1.75;;
43706;SDS011;61348;53.392;-6.248;2023-09-18T09:53:56;4.70;;;1.02;;
43706;SDS011;61348;53.392;-6.248;2023-09-18T09:56:45;6.55;;;1.60;;
43706;SDS011;61348;53.392;-6.248;2023-09-18T09:59:15;7.80;;;1.98;;
43706;SDS011;61348;53.392;-6.248;2023-09-18T10:01:42;9.32;;;2.22;;
43706;SDS011;61348;53.392;-6.248;2023-09-18T10:04:13;9.30;;;1.50;;
43706;SDS011;61348;53.392;-6.248;2023-09-18T10:06:45;5.40;;;1.48;;
43706;SDS011;61348;53.392;-6.248;2023-09-18T10:09:20;7.93;;;1.60;;
43706;SDS011;61348;53.392;-6.248;2023-09-18T10:11:51;7.57;;;1.63;;
43706;SDS011;61348;53.392;-6.248;2023-09-18T10:14:31;10.52;;;2.40;;
43706;SDS011;61348;53.392;-6.248;2023-09-18T10:17:21;9.50;;;1.88;;
43706;SDS011;61348;53.392;-6.248;2023-09-18T10:20:07;8.57;;;1.85;;
43706;SDS011;61348;53.392;-6.248;2023-09-18T10:22:39;11.10;;;1.92;;
43706;SDS011;61348;53.392;-6.248;2023-09-18T10:25:11;8.45;;;1.65;;
43706;SDS011;61348;53.392;-6.248;2023-09-18T10:27:46;11.07;;;1.80;;
43706;SDS011;61348;53.392;-6.248;2023-09-18T10:30:20;11.68;;;2.08;;
43706;SDS011;61348;53.392;-6.248;2023-09-18T10:32:49;9.63;;;1.83;;
43706;SDS011;61348;53.392;-6.248;2023-09-18T10:35:17;10.52;;;2.53;;
43706;SDS011;61348;53.392;-6.248;2023-09-18T10:37:46;6.68;;;1.30;;
43706;SDS011;61348;53.392;-6.248;2023-09-18T10:40:22;10.93;;;1.77;;
43706;SDS011;61348;53.392;-6.248;2023-09-18T10:42:52;5.57;;;1.70;;
43706;SDS011;61348;53.392;-6.248;2023-09-18T10:45:21;7.35;;;1.58;;
43706;SDS011;61348;53.392;-6.248;2023-09-18T10:47:51;7.82;;;1.75;;
43706;SDS011;61348;53.392;-6.248;2023-09-18T10:50:26;5.50;;;1.58;;
43706;SDS011;61348;53.392;-6.248;2023-09-18T10:52:58;8.93;;;1.52;;
43706;SDS011;61348;53.392;-6.248;2023-09-18T10:55:25;7.43;;;1.55;;
43706;SDS011;61348;53.392;-6.248;2023-09-18T10:57:53;6.35;;;1.60;;
43706;SDS011;61348;53.392;-6.248;2023-09-18T11:00:24;4.32;;;1.17;;
43706;SDS011;61348;53.392;-6.248;2023-09-18T11:02:52;8.25;;;2.10;;
43706;SDS011;61348;53.392;-6.248;2023-09-18T11:11:02;4.78;;;1.40;;
43706;SDS011;61348;53.392;-6.248;2023-09-18T11:13:42;10.45;;;2.15;;
43706;SDS011;61348;53.392;-6.248;2023-09-18T11:16:16;9.20;;;1.30;;
43706;SDS011;61348;53.392;-6.248;2023-09-18T11:21:26;7.28;;;2.33;;
43706;SDS011;61348;53.392;-6.248;2023-09-18T11:23:59;11.77;;;1.40;;
43706;SDS011;61348;53.392;-6.248;2023-09-18T11:26:45;3.80;;;1.03;;
43706;SDS011;61348;53.392;-6.248;2023-09-18T11:29:14;4.97;;;1.10;;
43706;SDS011;61348;53.392;-6.248;2023-09-18T11:34:24;5.93;;;1.60;;
43706;SDS011;61348;53.392;-6.248;2023-09-18T11:36:58;6.72;;;1.40;;
43706;SDS011;61348;53.392;-6.248;2023-09-18T11:39:35;4.68;;;1.23;;
43706;SDS011;61348;53.392;-6.248;2023-09-18T11:42:21;4.78;;;1.20;;
43706;SDS011;61348;53.392;-6.248;2023-09-18T11:44:53;5.45;;;1.05;;
43706;SDS011;61348;53.392;-6.248;2023-09-18T11:47:24;6.13;;;1.95;;
43706;SDS011;61348;53.392;-6.248;2023-09-18T11:49:58;6.35;;;1.52;;
43706;SDS011;61348;53.392;-6.248;2023-09-18T11:54:56;4.35;;;1.02;;
43706;SDS011;61348;53.392;-6.248;2023-09-18T11:57:26;8.90;;;1.17;;
43706;SDS011;61348;53.392;-6.248;2023-09-18T11:59:56;7.53;;;1.00;;
43706;SDS011;61348;53.392;-6.248;2023-09-18T12:02:30;5.20;;;1.70;;
43706;SDS011;61348;53.392;-6.248;2023-09-18T12:05:14;6.60;;;1.23;;
43706;SDS011;61348;53.392;-6.248;2023-09-18T12:07:42;7.40;;;1.40;;
43706;SDS011;61348;53.392;-6.248;2023-09-18T12:10:12;4.97;;;0.90;;
43706;SDS011;61348;53.392;-6.248;2023-09-18T12:12:41;5.78;;;1.02;;
43706;SDS011;61348;53.392;-6.248;2023-09-18T12:15:17;7.38;;;1.30;;
43706;SDS011;61348;53.392;-6.248;2023-09-18T12:17:44;7.35;;;1.83;;
43706;SDS011;61348;53.392;-6.248;2023-09-18T12:20:16;6.75;;;1.33;;
43706;SDS011;61348;53.392;-6.248;2023-09-18T12:22:49;5.38;;;1.40;;
43706;SDS011;61348;53.392;-6.248;2023-09-18T12:25:17;6.20;;;1.53;;
43706;SDS011;61348;53.392;-6.248;2023-09-18T12:27:55;5.18;;;1.00;;
43706;SDS011;61348;53.392;-6.248;2023-09-18T12:30:22;7.00;;;1.73;;
43706;SDS011;61348;53.392;-6.248;2023-09-18T12:32:50;3.88;;;0.70;;
43706;SDS011;61348;53.392;-6.248;2023-09-18T12:35:17;3.83;;;1.33;;
43706;SDS011;61348;53.392;-6.248;2023-09-18T12:37:47;3.17;;;1.35;;
43706;SDS011;61348;53.392;-6.248;2023-09-18T12:40:26;7.15;;;1.52;;
43706;SDS011;61348;53.392;-6.248;2023-09-18T12:42:55;5.22;;;0.90;;
43706;SDS011;61348;53.392;-6.248;2023-09-18T12:45:26;4.72;;;1.40;;
43706;SDS011;61348;53.392;-6.248;2023-09-18T12:47:54;6.35;;;1.45;;
43706;SDS011;61348;53.392;-6.248;2023-09-18T12:50:23;8.15;;;1.42;;
43706;SDS011;61348;53.392;-6.248;2023-09-18T12:52:51;5.78;;;0.93;;
43706;SDS011;61348;53.392;-6.248;2023-09-18T12:55:21;2.28;;;0.93;;
43706;SDS011;61348;53.392;-6.248;2023-09-18T12:57:50;3.42;;;0.90;;
43706;SDS011;61348;53.392;-6.248;2023-09-18T13:00:18;4.32;;;0.98;;
43706;SDS011;61348;53.392;-6.248;2023-09-18T13:02:53;3.08;;;0.73;;
43706;SDS011;61348;53.392;-6.248;2023-09-18T13:05:23;3.42;;;0.90;;
43706;SDS011;61348;53.392;-6.248;2023-09-18T13:07:53;5.20;;;0.98;;
43706;SDS011;61348;53.392;-6.248;2023-09-18T13:10:20;1.98;;;0.50;;
43706;SDS011;61348;53.392;-6.248;2023-09-18T13:12:52;1.75;;;0.40;;
43706;SDS011;61348;53.392;-6.248;2023-09-18T13:17:59;4.70;;;1.05;;
43706;SDS011;61348;53.392;-6.248;2023-09-18T13:20:30;2.60;;;0.43;;
43706;SDS011;61348;53.392;-6.248;2023-09-18T13:22:59;2.63;;;0.68;;
43706;SDS011;61348;53.392;-6.248;2023-09-18T13:25:31;3.08;;;0.50;;
43706;SDS011;61348;53.392;-6.248;2023-09-18T13:28:01;2.63;;;0.50;;
43706;SDS011;61348;53.392;-6.248;2023-09-18T13:30:30;0.80;;;0.40;;
43706;SDS011;61348;53.392;-6.248;2023-09-18T13:33:04;0.95;;;0.30;;
43706;SDS011;61348;53.392;-6.248;2023-09-18T13:35:33;0.82;;;0.30;;
43706;SDS011;61348;53.392;-6.248;2023-09-18T13:38:05;2.17;;;0.80;;
43706;SDS011;61348;53.392;-6.248;2023-09-18T13:40:34;0.90;;;0.50;;
43706;SDS011;61348;53.392;-6.248;2023-09-18T13:43:02;2.40;;;1.10;;
43706;SDS011;61348;53.392;-6.248;2023-09-18T13:45:30;2.55;;;0.50;;
43706;SDS011;61348;53.392;-6.248;2023-09-18T13:47:58;1.58;;;0.95;;
43706;SDS011;61348;53.392;-6.248;2023-09-18T13:50:25;2.60;;;0.30;;
43706;SDS011;61348;53.392;-6.248;2023-09-18T13:52:52;2.05;;;0.50;;
43706;SDS011;61348;53.392;-6.248;2023-09-18T13:55:20;1.55;;;0.50;;
43706;SDS011;61348;53.392;-6.248;2023-09-18T13:57:47;2.05;;;0.50;;
43706;SDS011;61348;53.392;-6.248;2023-09-18T14:00:14;0.98;;;0.30;;
43706;SDS011;61348;53.392;-6.248;2023-09-18T14:02:41;1.75;;;0.50;;
43706;SDS011;61348;53.392;-6.248;2023-09-18T14:05:09;2.60;;;0.63;;
43706;SDS011;61348;53.392;-6.248;2023-09-18T14:07:43;1.92;;;0.60;;
43706;SDS011;61348;53.392;-6.248;2023-09-18T14:10:14;4.38;;;1.52;;
43706;SDS011;61348;53.392;-6.248;2023-09-18T14:12:41;2.67;;;0.68;;
43706;SDS011;61348;53.392;-6.248;2023-09-18T14:15:09;3.75;;;0.75;;
43706;SDS011;61348;53.392;-6.248;2023-09-18T14:17:37;1.95;;;0.60;;
43706;SDS011;61348;53.392;-6.248;2023-09-18T14:20:04;1.30;;;0.73;;
43706;SDS011;61348;53.392;-6.248;2023-09-18T14:22:33;1.65;;;0.50;;
43706;SDS011;61348;53.392;-6.248;2023-09-18T14:25:01;2.10;;;0.52;;
43706;SDS011;61348;53.392;-6.248;2023-09-18T14:27:31;3.38;;;0.60;;
43706;SDS011;61348;53.392;-6.248;2023-09-18T14:29:59;0.77;;;0.38;;
43706;SDS011;61348;53.392;-6.248;2023-09-18T14:32:27;2.95;;;0.40;;
43706;SDS011;61348;53.392;-6.248;2023-09-18T14:34:54;3.42;;;0.50;;
43706;SDS011;61348;53.392;-6.248;2023-09-18T14:37:21;2.85;;;0.73;;
43706;SDS011;61348;53.392;-6.248;2023-09-18T14:39:48;2.90;;;0.50;;
43706;SDS011;61348;53.392;-6.248;2023-09-18T14:42:14;0.77;;;0.40;;
43706;SDS011;61348;53.392;-6.248;2023-09-18T14:44:41;2.63;;;0.60;;
43706;SDS011;61348;53.392;-6.248;2023-09-18T14:47:11;1.42;;;0.38;;
43706;SDS011;61348;53.392;-6.248;2023-09-18T14:49:39;3.35;;;1.15;;
43706;SDS011;61348;53.392;-6.248;2023-09-18T14:52:15;1.77;;;0.40;;
43706;SDS011;61348;53.392;-6.248;2023-09-18T14:54:47;3.75;;;0.80;;
43706;SDS011;61348;53.392;-6.248;2023-09-18T14:57:15;2.50;;;0.95;;
43706;SDS011;61348;53.392;-6.248;2023-09-18T14:59:42;1.08;;;0.50;;
43706;SDS011;61348;53.392;-6.248;2023-09-18T15:02:14;2.08;;;0.65;;